Time,TemperatureF,DewpointF,PressureIn,WindDirection,WindDirectionDegrees,WindSpeedMPH,WindSpeedGustMPH,Humidity,HourlyPrecipIn,Conditions,Clouds,dailyrainin,SoftwareType,DateUTC
2013-03-06 00:11:00,21.6,16.7,30.21,NNW,337,6.8,-999.0,81,-99.99,,,0.00,Acu-Link.com,2013-03-06 06:11:00,
2013-03-06 00:26:00,22.8,17.3,30.22,WNW,292,7.8,-999.0,79,-99.99,,,0.00,Acu-Link.com,2013-03-06 06:26:00,
2013-03-06 00:41:00,22.8,17.3,30.23,WNW,292,7.8,-999.0,79,-99.99,,,0.00,Acu-Link.com,2013-03-06 06:41:00,
2013-03-06 00:56:00,22.8,17.0,30.22,NNW,337,8.9,-999.0,78,-99.99,,,0.00,Acu-Link.com,2013-03-06 06:56:00,
2013-03-06 01:11:00,23.0,17.2,30.23,NNE,22,6.3,-999.0,78,-99.99,,,0.00,Acu-Link.com,2013-03-06 07:11:00,
2013-03-06 01:26:00,23.0,16.9,30.23,NNW,337,10.9,-999.0,77,-99.99,,,0.00,Acu-Link.com,2013-03-06 07:26:00,
2013-03-06 01:42:00,23.0,16.9,30.23,NNW,337,8.3,-999.0,77,-99.99,,,0.00,Acu-Link.com,2013-03-06 07:42:00,
2013-03-06 01:57:00,23.0,17.2,30.24,North,0,6.3,-999.0,78,-99.99,,,0.00,Acu-Link.com,2013-03-06 07:57:00,
2013-03-06 02:12:00,22.5,16.7,30.23,NW,315,12.5,-999.0,78,-99.99,,,0.00,Acu-Link.com,2013-03-06 08:12:00,
2013-03-06 02:28:00,21.9,16.1,30.23,NE,45,15.0,-999.0,78,-99.99,,,0.00,Acu-Link.com,2013-03-06 08:28:00,
2013-03-06 02:43:00,21.6,15.8,30.23,NNE,22,6.8,-999.0,78,-99.99,,,0.00,Acu-Link.com,2013-03-06 08:43:00,
2013-03-06 02:58:00,21.7,16.2,30.24,NW,315,6.3,-999.0,79,-99.99,,,0.00,Acu-Link.com,2013-03-06 08:58:00,
2013-03-06 03:23:00,21.7,16.2,30.24,NNW,337,6.8,-999.0,79,-99.99,,,0.00,Acu-Link.com,2013-03-06 09:23:00,
2013-03-06 03:38:00,21.9,16.4,30.23,North,0,8.3,-999.0,79,-99.99,,,0.00,Acu-Link.com,2013-03-06 09:38:00,
2013-03-06 03:53:00,21.9,16.7,30.23,NNE,22,6.8,-999.0,80,-99.99,,,0.00,Acu-Link.com,2013-03-06 09:53:00,
2013-03-06 04:08:00,21.6,16.4,30.24,NW,315,4.7,-999.0,80,-99.99,,,0.00,Acu-Link.com,2013-03-06 10:08:00,
2013-03-06 04:23:00,21.6,16.7,30.25,WNW,292,3.2,-999.0,81,-99.99,,,0.00,Acu-Link.com,2013-03-06 10:23:00,
2013-03-06 04:38:00,21.7,16.8,30.24,NW,315,6.8,-999.0,81,-99.99,,,0.00,Acu-Link.com,2013-03-06 10:38:00,
2013-03-06 04:54:00,21.7,16.8,30.25,NW,315,7.3,-999.0,81,-99.99,,,0.00,Acu-Link.com,2013-03-06 10:54:00,
2013-03-06 05:09:00,21.7,16.8,30.25,NW,315,5.3,-999.0,81,-99.99,,,0.00,Acu-Link.com,2013-03-06 11:09:00,
2013-03-06 05:24:00,21.6,16.4,30.25,NW,315,7.3,-999.0,80,-99.99,,,0.00,Acu-Link.com,2013-03-06 11:24:00,
2013-03-06 05:39:00,21.6,16.7,30.25,NW,315,4.2,-999.0,81,-99.99,,,0.00,Acu-Link.com,2013-03-06 11:39:00,
2013-03-06 05:54:00,21.6,16.7,30.25,NNW,337,6.3,-999.0,81,-99.99,,,0.00,Acu-Link.com,2013-03-06 11:54:00,
2013-03-06 06:09:00,21.2,16.6,30.26,NNE,22,7.3,-999.0,82,-99.99,,,0.00,Acu-Link.com,2013-03-06 12:09:00,
2013-03-06 06:25:00,20.5,15.6,30.26,NNE,22,3.7,-999.0,81,-99.99,,,0.00,Acu-Link.com,2013-03-06 12:25:00,
2013-03-06 06:40:00,20.5,15.9,30.25,NW,315,5.3,-999.0,82,-99.99,,,0.00,Acu-Link.com,2013-03-06 12:40:00,
2013-03-06 06:56:00,20.3,15.4,30.25,ENE,67,6.3,-999.0,81,-99.99,,,0.00,Acu-Link.com,2013-03-06 12:56:00,
2013-03-06 07:11:00,20.5,15.9,30.25,NNW,337,3.7,-999.0,82,-99.99,,,0.00,Acu-Link.com,2013-03-06 13:11:00,
2013-03-06 07:26:00,21.0,16.1,30.25,NNW,337,3.7,-999.0,81,-99.99,,,0.00,Acu-Link.com,2013-03-06 13:26:00,
2013-03-06 07:41:00,21.4,16.2,30.25,NE,45,4.2,-999.0,80,-99.99,,,0.00,Acu-Link.com,2013-03-06 13:41:00,
2013-03-06 07:57:00,21.4,15.9,30.25,North,0,3.7,-999.0,79,-99.99,,,0.00,Acu-Link.com,2013-03-06 13:57:00,
2013-03-06 08:12:00,22.1,16.6,30.26,NNE,22,3.2,-999.0,79,-99.99,,,0.00,Acu-Link.com,2013-03-06 14:12:00,
2013-03-06 08:27:00,23.0,16.9,30.26,ESE,112,6.3,-999.0,77,-99.99,,,0.00,Acu-Link.com,2013-03-06 14:27:00,
2013-03-06 08:42:00,23.0,17.2,30.26,ENE,67,6.3,-999.0,78,-99.99,,,0.00,Acu-Link.com,2013-03-06 14:42:00,
2013-03-06 08:57:00,24.1,17.7,30.25,East,90,6.8,-999.0,76,-99.99,,,0.00,Acu-Link.com,2013-03-06 14:57:00,
2013-03-06 09:13:00,25.5,18.4,30.26,NE,45,8.3,-999.0,74,-99.99,,,0.00,Acu-Link.com,2013-03-06 15:13:00,
2013-03-06 09:28:00,24.4,17.3,30.25,East,90,5.8,-999.0,74,-99.99,,,0.00,Acu-Link.com,2013-03-06 15:28:00,
2013-03-06 09:43:00,26.4,18.3,30.26,East,90,2.2,-999.0,71,-99.99,,,0.00,Acu-Link.com,2013-03-06 15:43:00,
2013-03-06 09:58:00,27.5,18.3,30.25,ESE,112,5.8,-999.0,68,-99.99,,,0.00,Acu-Link.com,2013-03-06 15:58:00,
2013-03-06 10:13:00,27.3,18.5,30.25,ENE,67,3.2,-999.0,69,-99.99,,,0.00,Acu-Link.com,2013-03-06 16:13:00,
2013-03-06 10:28:00,29.8,19.5,30.25,ESE,112,8.3,-999.0,65,-99.99,,,0.00,Acu-Link.com,2013-03-06 16:28:00,
2013-03-06 10:43:00,31.1,19.6,30.24,East,90,6.8,-999.0,62,-99.99,,,0.00,Acu-Link.com,2013-03-06 16:43:00,
2013-03-06 10:58:00,30.9,20.2,30.23,SSE,157,7.3,-999.0,64,-99.99,,,0.00,Acu-Link.com,2013-03-06 16:58:00,
2013-03-06 11:13:00,32.2,20.3,30.24,East,90,6.3,-999.0,61,-99.99,,,0.00,Acu-Link.com,2013-03-06 17:13:00,
2013-03-06 11:28:00,33.3,20.9,30.24,SE,135,5.3,-999.0,60,-99.99,,,0.00,Acu-Link.com,2013-03-06 17:28:00,
2013-03-06 11:43:00,33.1,20.7,30.24,ESE,112,7.8,-999.0,60,-99.99,,,0.00,Acu-Link.com,2013-03-06 17:43:00,
2013-03-06 11:58:00,34.2,21.4,30.23,South,180,4.7,-999.0,59,-99.99,,,0.00,Acu-Link.com,2013-03-06 17:58:00,
2013-03-06 12:14:00,34.5,21.3,30.23,SSE,157,5.3,-999.0,58,-99.99,,,0.00,Acu-Link.com,2013-03-06 18:14:00,
2013-03-06 12:29:00,34.2,21.0,30.22,East,90,3.2,-999.0,58,-99.99,,,0.00,Acu-Link.com,2013-03-06 18:29:00,
2013-03-06 12:44:00,34.5,20.4,30.22,WNW,292,0.0,-999.0,56,-99.99,,,0.00,Acu-Link.com,2013-03-06 18:44:00,
2013-03-06 12:59:00,36.5,21.9,30.21,South,180,4.2,-999.0,55,-99.99,,,0.00,Acu-Link.com,2013-03-06 18:59:00,
2013-03-06 13:14:00,36.0,21.4,30.19,SE,135,2.2,-999.0,55,-99.99,,,0.00,Acu-Link.com,2013-03-06 19:14:00,
2013-03-06 13:29:00,36.5,21.0,30.18,SSE,157,3.7,-999.0,53,-99.99,,,0.00,Acu-Link.com,2013-03-06 19:29:00,
2013-03-06 13:45:00,38.1,21.1,30.17,ENE,67,2.2,-999.0,50,-99.99,,,0.00,Acu-Link.com,2013-03-06 19:45:00,
2013-03-06 14:00:00,37.0,21.0,30.17,ESE,112,5.3,-999.0,52,-99.99,,,0.00,Acu-Link.com,2013-03-06 20:00:00,
2013-03-06 14:15:00,38.1,21.6,30.15,SSE,157,6.8,-999.0,51,-99.99,,,0.00,Acu-Link.com,2013-03-06 20:15:00,
2013-03-06 14:30:00,39.2,22.6,30.15,SSE,157,7.8,-999.0,51,-99.99,,,0.00,Acu-Link.com,2013-03-06 20:30:00,
2013-03-06 14:45:00,38.7,22.1,30.15,West,270,7.3,-999.0,51,-99.99,,,0.00,Acu-Link.com,2013-03-06 20:45:00,
2013-03-06 15:00:00,38.7,22.1,30.14,East,90,3.7,-999.0,51,-99.99,,,0.00,Acu-Link.com,2013-03-06 21:00:00,
2013-03-06 15:15:00,39.6,23.0,30.13,SE,135,5.8,-999.0,51,-99.99,,,0.00,Acu-Link.com,2013-03-06 21:15:00,
2013-03-06 15:31:00,39.4,22.8,30.13,SSE,157,5.3,-999.0,51,-99.99,,,0.00,Acu-Link.com,2013-03-06 21:31:00,
2013-03-06 15:46:00,40.5,23.8,30.13,SE,135,8.9,-999.0,51,-99.99,,,0.00,Acu-Link.com,2013-03-06 21:46:00,
2013-03-06 16:01:00,40.6,23.9,30.11,ESE,112,7.3,-999.0,51,-99.99,,,0.00,Acu-Link.com,2013-03-06 22:01:00,
2013-03-06 16:16:00,39.7,23.1,30.11,SSE,157,4.7,-999.0,51,-99.99,,,0.00,Acu-Link.com,2013-03-06 22:16:00,
2013-03-06 16:31:00,40.3,23.6,30.10,ESE,112,10.9,-999.0,51,-99.99,,,0.00,Acu-Link.com,2013-03-06 22:31:00,
2013-03-06 16:47:00,39.9,23.7,30.10,ESE,112,7.8,-999.0,52,-99.99,,,0.00,Acu-Link.com,2013-03-06 22:47:00,
2013-03-06 17:02:00,39.2,22.6,30.09,ESE,112,6.3,-999.0,51,-99.99,,,0.00,Acu-Link.com,2013-03-06 23:02:00,
2013-03-06 17:17:00,39.0,23.3,30.08,ESE,112,10.4,-999.0,53,-99.99,,,0.00,Acu-Link.com,2013-03-06 23:17:00,
2013-03-06 17:32:00,38.3,23.1,30.08,ESE,112,9.9,-999.0,54,-99.99,,,0.00,Acu-Link.com,2013-03-06 23:32:00,
2013-03-06 17:47:00,37.2,23.0,30.08,East,90,7.8,-999.0,56,-99.99,,,0.00,Acu-Link.com,2013-03-06 23:47:00,
2013-03-06 18:02:00,35.8,22.5,30.08,ESE,112,8.3,-999.0,58,-99.99,,,0.00,Acu-Link.com,2013-03-07 00:02:00,
2013-03-06 18:17:00,34.2,22.6,30.08,ESE,112,6.3,-999.0,62,-99.99,,,0.00,Acu-Link.com,2013-03-07 00:17:00,
2013-03-06 18:32:00,32.5,22.1,30.08,ESE,112,5.3,-999.0,65,-99.99,,,0.00,Acu-Link.com,2013-03-07 00:32:00,
2013-03-06 18:48:00,31.3,22.0,30.07,ESE,112,4.7,-999.0,68,-99.99,,,0.00,Acu-Link.com,2013-03-07 00:48:00,
2013-03-06 19:03:00,30.2,21.9,30.08,ESE,112,4.7,-999.0,71,-99.99,,,0.00,Acu-Link.com,2013-03-07 01:03:00,
2013-03-06 19:18:00,29.8,21.9,30.07,ESE,112,4.7,-999.0,72,-99.99,,,0.00,Acu-Link.com,2013-03-07 01:18:00,
2013-03-06 19:33:00,29.8,22.2,30.07,ESE,112,6.3,-999.0,73,-99.99,,,0.00,Acu-Link.com,2013-03-07 01:33:00,
2013-03-06 19:48:00,30.0,22.4,30.08,ESE,112,5.8,-999.0,73,-99.99,,,0.00,Acu-Link.com,2013-03-07 01:48:00,
2013-03-06 20:03:00,28.8,21.9,30.07,ESE,112,4.7,-999.0,75,-99.99,,,0.00,Acu-Link.com,2013-03-07 02:03:00,
2013-03-06 20:19:00,28.8,22.2,30.08,SSE,157,5.8,-999.0,76,-99.99,,,0.00,Acu-Link.com,2013-03-07 02:19:00,
2013-03-06 20:34:00,28.4,21.8,30.08,ESE,112,5.8,-999.0,76,-99.99,,,0.00,Acu-Link.com,2013-03-07 02:34:00,
2013-03-06 20:49:00,28.2,21.9,30.08,ESE,112,5.8,-999.0,77,-99.99,,,0.00,Acu-Link.com,2013-03-07 02:49:00,
2013-03-06 21:04:00,28.0,22.0,30.07,ESE,112,9.4,-999.0,78,-99.99,,,0.00,Acu-Link.com,2013-03-07 03:04:00,
2013-03-06 21:19:00,28.0,22.3,30.07,ESE,112,7.3,-999.0,79,-99.99,,,0.00,Acu-Link.com,2013-03-07 03:19:00,
2013-03-06 21:35:00,27.7,22.6,30.07,ESE,112,8.3,-999.0,81,-99.99,,,0.00,Acu-Link.com,2013-03-07 03:35:00,
2013-03-06 21:50:00,27.5,22.4,30.07,ESE,112,7.8,-999.0,81,-99.99,,,0.00,Acu-Link.com,2013-03-07 03:50:00,
2013-03-06 22:05:00,27.3,22.5,30.07,SSE,157,10.9,-999.0,82,-99.99,,,0.00,Acu-Link.com,2013-03-07 04:05:00,
2013-03-06 22:20:00,27.1,22.3,30.06,ESE,112,7.8,-999.0,82,-99.99,,,0.00,Acu-Link.com,2013-03-07 04:20:00,
2013-03-06 22:35:00,26.8,22.1,30.07,ESE,112,9.4,-999.0,82,-99.99,,,0.00,Acu-Link.com,2013-03-07 04:35:00,
2013-03-06 22:50:00,26.6,21.9,30.07,SE,135,8.3,-999.0,82,-99.99,,,0.00,Acu-Link.com,2013-03-07 04:50:00,
2013-03-06 23:06:00,26.2,21.5,30.07,SE,135,7.8,-999.0,82,-99.99,,,0.00,Acu-Link.com,2013-03-07 05:06:00,
2013-03-06 23:21:00,25.9,21.2,30.08,ESE,112,7.3,-999.0,82,-99.99,,,0.00,Acu-Link.com,2013-03-07 05:21:00,
2013-03-06 23:36:00,25.2,21.1,30.07,ESE,112,6.3,-999.0,84,-99.99,,,0.00,Acu-Link.com,2013-03-07 05:36:00,
2013-03-06 23:51:00,24.8,20.7,30.08,ESE,112,5.8,-999.0,84,-99.99,,,0.00,Acu-Link.com,2013-03-07 05:51:00,